Time;durP1;ratioP1;P1;durP2;ratioP2;P2;SDS_P1;SDS_P2;PMS_P1;PMS_P2;Temp;Humidity;BMP_temperature;BMP_pressure;BME280_temperature;BME280_humidity;BME280_pressure;Samples;Min_cycle;Max_cycle;Signal;HPM_P1;HPM_P2
2022/02/10 00:03:30;;;;;;;7.72;6.40;;;;;;;8.16;71.21;100818.94;10308340;28;20056;-62
2022/02/10 00:34:15;;;;;;;8.13;6.15;;;;;;;8.10;70.84;100807.75;10314694;28;20052;-61
2022/02/10 00:44:20;;;;;;;9.37;7.27;;;;;;;8.11;70.83;100796.19;10323184;28;20216;-64
2022/02/10 00:49:22;;;;;;;7.85;5.93;;;;;;;8.14;70.95;100782.75;10316989;28;20302;-62
2022/02/10 00:54:25;;;;;;;7.45;6.30;;;;;;;8.05;70.73;100772.72;10314004;28;20546;-62
2022/02/10 00:59:43;;;;;;;7.90;7.10;;;;;;;7.93;70.73;100784.09;10315779;28;20062;-62
2022/02/10 01:31:27;;;;;;;9.07;6.47;;;;;;;7.63;71.07;100755.84;10312811;28;20039;-63
2022/02/10 01:36:29;;;;;;;8.35;7.47;;;;;;;7.63;70.89;100750.53;10317035;28;20648;-62
2022/02/10 01:41:59;;;;;;;8.07;6.70;;;;;;;7.57;71.11;100742.97;10310592;28;20046;-64
2022/02/10 01:58:10;;;;;;;8.20;7.10;;;;;;;7.71;71.12;100740.31;10316317;28;20696;-63
2022/02/10 02:08:28;;;;;;;11.25;8.38;;;;;;;7.50;72.46;100738.97;10309974;28;20054;-64
2022/02/10 02:13:31;;;;;;;9.17;8.30;;;;;;;7.43;72.61;100739.34;10320422;28;20247;-62
2022/02/10 02:18:34;;;;;;;9.10;6.88;;;;;;;7.53;72.19;100725.53;10315040;28;20042;-62
2022/02/10 02:23:35;;;;;;;10.15;8.38;;;;;;;7.49;72.00;100714.28;10310253;28;20060;-63
2022/02/10 02:28:40;;;;;;;9.20;7.93;;;;;;;7.64;71.80;100719.59;10313519;28;20050;-62
2022/02/10 03:05:40;;;;;;;9.23;8.20;;;;;;;7.23;71.93;100695.47;10312957;28;20099;-63
2022/02/10 03:21:51;;;;;;;9.13;8.15;;;;;;;7.03;72.39;100667.56;10308646;28;20062;-63
2022/02/10 04:09:41;;;;;;;11.02;9.18;;;;;;;6.47;73.74;100666.41;10318904;28;20080;-61
2022/02/10 04:14:46;;;;;;;9.63;8.27;;;;;;;6.54;73.03;100659.81;10322506;28;20050;-62
2022/02/10 04:20:10;;;;;;;11.13;8.65;;;;;;;6.48;73.27;100665.47;10313234;28;20129;-61
2022/02/10 05:34:35;;;;;;;10.75;8.60;;;;;;;5.94;71.39;100584.69;10317692;28;20050;-62
2022/02/10 05:39:41;;;;;;;9.45;8.23;;;;;;;5.95;71.49;100599.63;10312927;28;20042;-61
2022/02/10 05:45:12;;;;;;;9.73;8.40;;;;;;;6.04;71.28;100606.22;10313166;28;20050;-64
2022/02/10 06:39:00;;;;;;;11.80;9.13;;;;;;;6.17;70.02;100572.88;10305363;28;20054;-62
2022/02/10 06:54:12;;;;;;;9.57;7.95;;;;;;;6.42;69.71;100597.91;10314779;28;20156;-62
2022/02/10 07:57:46;;;;;;;8.82;7.72;;;;;;;6.62;69.16;100575.59;10314195;28;20065;-61
2022/02/10 08:56:25;;;;;;;9.38;7.85;;;;;;;6.93;70.20;100599.38;10344396;28;20042;-63
2022/02/10 09:07:06;;;;;;;10.77;8.93;;;;;;;7.15;69.70;100585.72;10345316;28;20045;-63
2022/02/10 09:12:48;;;;;;;13.27;8.63;;;;;;;7.25;69.41;100597.41;10341509;28;20046;-63
2022/02/10 10:10:44;;;;;;;10.80;8.07;;;;;;;7.62;71.11;100661.38;10337164;28;20065;-62
2022/02/10 10:58:29;;;;;;;10.38;9.20;;;;;;;7.69;74.04;100656.59;10311028;28;20077;-61
2022/02/10 11:03:44;;;;;;;13.98;10.18;;;;;;;7.73;75.15;100650.13;10306632;28;20058;-61
2022/02/10 11:47:16;;;;;;;10.98;9.80;;;;;;;8.07;78.81;100642.69;10299105;28;20147;-62
2022/02/10 13:23:29;;;;;;;7.55;5.97;;;;;;;8.62;76.34;100619.72;10346453;28;20227;-62
2022/02/10 14:16:37;;;;;;;4.95;4.53;;;;;;;8.73;74.87;100606.59;10303379;28;20054;-62
2022/02/10 14:21:47;;;;;;;4.85;4.43;;;;;;;9.03;73.83;100595.69;10304421;28;20839;-60
2022/02/10 14:26:49;;;;;;;6.28;5.70;;;;;;;9.02;73.82;100604.63;10309630;28;20042;-62
2022/02/10 14:31:53;;;;;;;5.32;4.85;;;;;;;8.93;74.18;100604.38;10304568;28;20715;-60
2022/02/10 14:37:14;;;;;;;6.45;5.25;;;;;;;8.93;73.63;100609.69;10302850;28;20588;-61
2022/02/10 16:18:07;;;;;;;9.23;8.25;;;;;;;8.41;75.70;100612.19;10310353;28;20054;-62
2022/02/10 16:23:16;;;;;;;9.52;8.43;;;;;;;8.36;76.25;100616.97;10309911;28;20038;-62
2022/02/10 16:33:25;;;;;;;10.35;9.30;;;;;;;8.27;76.73;100613.09;10306065;28;20053;-61
2022/02/10 16:38:32;;;;;;;9.43;8.45;;;;;;;8.07;76.97;100594.97;10305092;28;20137;-65
2022/02/10 16:43:39;;;;;;;10.73;9.63;;;;;;;8.12;77.71;100609.66;10318035;28;20136;-62
2022/02/10 16:48:45;;;;;;;9.63;8.63;;;;;;;8.00;77.63;100609.56;10309383;28;20671;-66
2022/02/10 16:53:58;;;;;;;10.73;9.63;;;;;;;7.96;77.46;100615.06;10309074;28;20133;-62
2022/02/10 17:15:39;;;;;;;11.05;9.55;;;;;;;7.68;75.14;100610.66;10314571;28;20123;-61
2022/02/10 17:20:39;;;;;;;11.60;9.10;;;;;;;7.82;74.73;100632.78;10313168;28;20657;-62
2022/02/10 17:25:45;;;;;;;9.30;8.30;;;;;;;7.88;74.62;100621.81;10310103;28;20547;-61
2022/02/10 17:31:03;;;;;;;10.93;9.63;;;;;;;7.95;74.76;100633.72;10309425;28;20475;-68
2022/02/10 17:36:26;;;;;;;12.07;9.77;;;;;;;7.95;74.77;100646.97;10313556;28;20050;-63
2022/02/10 17:42:03;;;;;;;12.25;10.30;;;;;;;7.81;76.39;100641.69;10298436;28;20050;-62
2022/02/10 17:52:24;;;;;;;13.15;11.18;;;;;;;8.08;76.90;100647.91;10308255;28;20049;-65
2022/02/10 17:57:26;;;;;;;13.48;11.27;;;;;;;8.04;78.53;100650.84;10307384;28;20058;-63
2022/02/10 18:02:27;;;;;;;12.70;11.40;;;;;;;8.10;78.68;100659.25;10302778;28;20150;-63
2022/02/10 18:07:28;;;;;;;13.82;12.35;;;;;;;8.02;78.74;100650.94;10309418;28;20449;-61
2022/02/10 18:18:18;;;;;;;13.80;12.38;;;;;;;7.79;79.80;100642.66;10284086;28;20050;-64
2022/02/10 18:23:27;;;;;;;16.55;13.63;;;;;;;7.82;80.87;100648.69;10306578;28;20465;-63
2022/02/10 18:28:50;;;;;;;15.35;13.68;;;;;;;7.94;81.55;100648.78;10303910;28;20046;-62
2022/02/10 18:34:29;;;;;;;17.15;15.45;;;;;;;7.94;80.76;100645.28;10311642;28;20053;-63
2022/02/10 19:07:18;;;;;;;16.25;13.85;;;;;;;7.46;82.31;100599.69;10296789;28;20965;-64
2022/02/10 19:11:56;;;;;;;20.15;15.77;;;;;;;7.66;83.12;100628.47;10285475;28;20061;-63
2022/02/10 19:17:00;;;;;;;18.42;15.52;;;;;;;7.58;82.51;100630.72;10304581;28;20574;-64
2022/02/10 19:22:02;;;;;;;17.60;15.68;;;;;;;7.53;82.70;100630.16;10304656;28;20116;-63
2022/02/10 19:27:04;;;;;;;18.58;16.45;;;;;;;7.37;83.41;100632.91;10305901;28;20055;-63
2022/02/10 19:32:06;;;;;;;17.05;14.52;;;;;;;7.30;84.06;100628.94;10324052;28;20049;-64
2022/02/10 19:37:10;;;;;;;16.10;14.43;;;;;;;7.13;84.31;100609.63;10339269;28;20056;-61
2022/02/10 19:42:11;;;;;;;15.10;13.60;;;;;;;7.39;83.45;100623.91;10336543;28;20136;-62
2022/02/10 19:47:13;;;;;;;17.52;14.48;;;;;;;7.29;83.85;100614.84;10319367;28;20064;-62
2022/02/10 19:52:16;;;;;;;14.32;12.80;;;;;;;7.38;82.53;100630.16;10306538;28;20057;-61
2022/02/10 19:57:21;;;;;;;14.23;12.50;;;;;;;7.38;83.31;100618.72;10302101;28;20157;-66
2022/02/10 20:02:24;;;;;;;11.38;9.63;;;;;;;7.33;83.65;100605.75;10298058;28;20096;-62
2022/02/10 20:07:29;;;;;;;14.93;12.95;;;;;;;7.22;83.51;100602.91;10313498;28;20904;-64
2022/02/10 20:12:30;;;;;;;13.20;11.82;;;;;;;7.43;83.35;100596.31;10314101;28;20062;-63
2022/02/10 20:17:32;;;;;;;14.30;12.73;;;;;;;7.49;82.76;100595.09;10311825;28;20053;-62
2022/02/10 20:22:37;;;;;;;12.90;11.55;;;;;;;7.32;82.42;100596.09;10308280;28;20091;-62
2022/02/10 20:27:59;;;;;;;12.43;11.13;;;;;;;7.11;82.30;100585.03;10305729;28;20057;-62
2022/02/10 20:33:00;;;;;;;12.23;10.95;;;;;;;7.21;82.46;100601.22;10305459;28;20520;-63
2022/02/10 20:38:03;;;;;;;12.15;10.93;;;;;;;7.26;82.74;100609.72;10300555;28;20049;-62
2022/02/10 20:43:07;;;;;;;12.43;11.23;;;;;;;7.22;81.87;100602.91;10310085;28;20046;-63
2022/02/10 20:48:09;;;;;;;12.45;11.18;;;;;;;7.22;81.93;100590.53;10316255;28;20045;-62
2022/02/10 20:53:11;;;;;;;11.73;10.52;;;;;;;7.37;81.44;100602.00;10314461;28;20046;-62
2022/02/10 20:58:12;;;;;;;13.85;12.38;;;;;;;7.29;81.54;100598.94;10326373;28;20034;-62
2022/02/10 21:03:15;;;;;;;13.30;10.95;;;;;;;7.26;81.46;100581.44;10340645;28;20073;-62
2022/02/10 21:08:29;;;;;;;13.60;12.02;;;;;;;7.39;80.95;100586.84;10318125;28;20056;-62
2022/02/10 21:13:32;;;;;;;14.75;12.88;;;;;;;7.14;82.01;100576.91;10316747;28;20405;-63
2022/02/10 21:18:35;;;;;;;14.23;12.70;;;;;;;7.31;81.88;100583.84;10313872;28;20484;-61
2022/02/10 21:23:44;;;;;;;14.65;12.73;;;;;;;7.31;81.62;100586.47;10320311;28;20050;-62
2022/02/10 21:28:47;;;;;;;14.13;11.98;;;;;;;7.24;82.28;100590.44;10318362;28;20049;-61
2022/02/10 21:34:01;;;;;;;15.00;12.10;;;;;;;7.34;82.45;100588.06;10315246;28;20050;-62
2022/02/10 21:39:24;;;;;;;14.30;12.57;;;;;;;7.18;83.20;100580.22;10310275;28;20057;-61
2022/02/10 22:11:28;;;;;;;14.38;12.63;;;;;;;7.13;84.62;100550.53;10310987;28;20052;-62
2022/02/10 22:21:51;;;;;;;17.02;14.55;;;;;;;7.01;84.82;100545.03;10315987;28;20528;-61
2022/02/10 22:26:54;;;;;;;14.32;12.77;;;;;;;6.98;84.96;100558.47;10313240;28;20113;-59
2022/02/10 22:37:18;;;;;;;15.88;11.88;;;;;;;7.05;85.86;100546.53;10314280;28;20220;-61
2022/02/10 22:42:23;;;;;;;14.20;12.65;;;;;;;7.23;86.41;100541.06;10315357;28;20050;-64
2022/02/10 22:47:24;;;;;;;14.07;12.43;;;;;;;7.15;85.10;100543.34;10307854;28;20050;-62
2022/02/10 22:52:25;;;;;;;13.77;12.38;;;;;;;7.20;85.55;100543.91;10308731;28;20324;-62
2022/02/10 22:57:28;;;;;;;15.65;13.98;;;;;;;7.03;86.05;100531.72;10304369;28;20458;-61
2022/02/10 23:02:30;;;;;;;15.32;13.73;;;;;;;7.07;87.00;100546.44;10305278;28;20069;-61
2022/02/10 23:07:31;;;;;;;18.10;14.23;;;;;;;7.01;87.03;100544.19;10308657;28;20169;-61
2022/02/10 23:12:36;;;;;;;15.35;13.57;;;;;;;6.91;87.98;100541.25;10310422;28;20730;-61
2022/02/10 23:17:39;;;;;;;15.45;13.10;;;;;;;6.92;87.16;100524.44;10310168;28;20046;-62
2022/02/10 23:22:41;;;;;;;17.38;15.52;;;;;;;6.78;88.52;100516.47;10308716;28;20179;-61
2022/02/10 23:27:42;;;;;;;15.32;12.85;;;;;;;6.85;88.63;100525.75;10310055;28;20045;-61
2022/02/10 23:32:44;;;;;;;14.80;13.20;;;;;;;6.89;88.84;100532.53;10307163;28;20053;-62
2022/02/10 23:37:48;;;;;;;16.23;14.35;;;;;;;6.87;88.94;100529.16;10313439;28;20045;-62
2022/02/10 23:42:53;;;;;;;15.77;13.23;;;;;;;6.81;89.08;100525.06;10309448;28;20060;-62
2022/02/10 23:47:55;;;;;;;15.20;13.63;;;;;;;6.98;89.09;100516.13;10306888;28;20047;-61
2022/02/10 23:52:57;;;;;;;13.63;12.15;;;;;;;6.98;87.37;100513.47;10306943;28;20062;-61
